Time;durP1;ratioP1;P1;durP2;ratioP2;P2;SDS_P1;SDS_P2;PMS_P1;PMS_P2;Temp;Humidity;BMP_temperature;BMP_pressure;BME280_temperature;BME280_humidity;BME280_pressure;Samples;Min_cycle;Max_cycle;Signal;HPM_P1;HPM_P2
2022/03/25 00:02:20;;;;;;;65.67;47.50;;;;;;;10.12;59.00;102811.72;5270227;28;20089;-76
2022/03/25 00:04:52;;;;;;;74.90;49.43;;;;;;;10.29;58.93;102819.16;5253360;28;20131;-75
2022/03/25 00:07:23;;;;;;;64.73;46.77;;;;;;;10.26;58.45;102827.06;5270657;28;20039;-74
2022/03/25 00:09:54;;;;;;;64.43;49.30;;;;;;;10.24;59.09;102828.00;5238763;28;20388;-74
2022/03/25 00:12:26;;;;;;;71.77;51.07;;;;;;;9.83;59.91;102813.31;5260313;28;20450;-74
2022/03/25 00:14:57;;;;;;;65.83;49.10;;;;;;;10.12;59.47;102823.97;5262931;28;20032;-76
2022/03/25 00:17:28;;;;;;;71.20;49.27;;;;;;;9.77;59.64;102814.31;5247396;28;20037;-75
2022/03/25 00:20:00;;;;;;;63.43;47.33;;;;;;;9.84;60.19;102817.69;5255047;28;20029;-74
2022/03/25 00:22:31;;;;;;;72.00;48.03;;;;;;;9.94;59.77;102823.53;5266519;28;20025;-74
2022/03/25 00:25:05;;;;;;;69.87;47.87;;;;;;;9.74;60.67;102829.28;5231772;28;20040;-75
2022/03/25 00:27:36;;;;;;;69.90;47.53;;;;;;;9.96;60.01;102823.50;5253169;28;20021;-75
2022/03/25 00:30:08;;;;;;;73.87;48.37;;;;;;;9.77;60.45;102829.19;5257316;28;20017;-75
2022/03/25 00:32:40;;;;;;;69.07;50.30;;;;;;;9.68;60.52;102827.66;5271738;28;20047;-75
2022/03/25 00:35:12;;;;;;;67.70;48.57;;;;;;;9.61;60.77;102832.19;5253891;28;20064;-75
2022/03/25 00:37:43;;;;;;;69.50;48.77;;;;;;;9.57;61.18;102825.28;5268004;28;20049;-74
2022/03/25 00:40:15;;;;;;;66.37;48.77;;;;;;;9.82;59.83;102814.22;5239486;28;20021;-74
2022/03/25 00:42:47;;;;;;;68.47;49.50;;;;;;;9.58;60.11;102811.31;5250251;28;20025;-74
2022/03/25 00:45:18;;;;;;;72.23;48.23;;;;;;;9.66;60.30;102827.69;5262164;28;20732;-74
2022/03/25 00:47:50;;;;;;;66.60;48.17;;;;;;;9.27;61.20;102819.84;5265365;28;20029;-75
2022/03/25 00:50:21;;;;;;;70.00;47.97;;;;;;;9.30;61.21;102819.81;5240216;28;20090;-75
2022/03/25 00:52:53;;;;;;;73.47;49.57;;;;;;;9.37;61.34;102817.91;5255748;28;20530;-75
2022/03/25 00:55:24;;;;;;;72.27;50.07;;;;;;;9.41;61.66;102823.03;5254020;28;20028;-74
2022/03/25 00:57:55;;;;;;;69.13;48.37;;;;;;;9.41;61.24;102815.19;5269026;28;20059;-75
2022/03/25 01:00:27;;;;;;;66.33;48.23;;;;;;;9.38;61.10;102820.50;5262780;28;20025;-75
2022/03/25 01:02:58;;;;;;;68.13;46.90;;;;;;;9.12;61.86;102814.09;5253452;28;20032;-75
2022/03/25 01:05:30;;;;;;;67.30;46.33;;;;;;;9.17;61.66;102820.06;5254587;28;20043;-75
2022/03/25 01:08:01;;;;;;;63.80;46.43;;;;;;;9.22;61.35;102822.59;5270935;28;20459;-74
2022/03/25 01:10:34;;;;;;;68.90;49.93;;;;;;;9.07;62.10;102818.56;5265440;28;20048;-75
2022/03/25 01:13:06;;;;;;;63.33;47.67;;;;;;;9.12;61.87;102821.94;5271300;28;20055;-75
2022/03/25 01:15:38;;;;;;;64.53;45.30;;;;;;;9.03;61.96;102816.91;5261148;28;20024;-75
2022/03/25 01:18:09;;;;;;;78.20;47.43;;;;;;;9.17;61.83;102816.59;5254656;28;20025;-75
2022/03/25 01:20:41;;;;;;;66.00;46.27;;;;;;;8.91;62.00;102810.19;5258587;28;20033;-74
2022/03/25 01:23:12;;;;;;;71.57;46.93;;;;;;;8.92;61.67;102820.59;5262330;28;20017;-74
2022/03/25 01:25:43;;;;;;;66.90;47.10;;;;;;;9.05;61.53;102821.22;5270299;28;20024;-75
2022/03/25 01:28:14;;;;;;;66.27;47.17;;;;;;;9.02;61.73;102815.19;5273284;28;20027;-74
2022/03/25 01:30:46;;;;;;;70.93;48.43;;;;;;;8.89;62.44;102812.81;5266010;28;20415;-74
2022/03/25 01:33:18;;;;;;;66.80;48.20;;;;;;;8.72;63.09;102826.25;5263588;28;20036;-74
2022/03/25 01:35:49;;;;;;;66.13;48.50;;;;;;;8.77;62.52;102823.53;5263222;28;20028;-76
2022/03/25 01:38:21;;;;;;;66.00;45.73;;;;;;;8.64;63.14;102818.53;5274784;28;20021;-74
2022/03/25 01:40:53;;;;;;;63.03;47.07;;;;;;;8.67;62.94;102818.50;5267462;28;20058;-74
2022/03/25 01:43:24;;;;;;;72.43;49.10;;;;;;;8.68;62.60;102812.38;5274761;28;20476;-74
2022/03/25 01:45:55;;;;;;;69.67;46.23;;;;;;;8.64;62.36;102818.53;5265674;28;20107;-74
2022/03/25 01:48:27;;;;;;;71.70;44.47;;;;;;;8.86;61.71;102805.06;5260505;28;20036;-74
2022/03/25 01:51:00;;;;;;;68.43;44.40;;;;;;;8.62;62.94;102816.88;5267642;28;20036;-75
2022/03/25 01:53:32;;;;;;;72.17;45.50;;;;;;;8.63;62.44;102819.44;5273960;28;20020;-74
2022/03/25 01:56:05;;;;;;;64.67;45.40;;;;;;;8.43;62.62;102812.81;5259129;28;20519;-74
2022/03/25 01:58:39;;;;;;;61.67;45.45;;;;;;;8.86;61.76;102807.69;5254114;28;20021;-74
2022/03/25 02:01:10;;;;;;;63.13;44.17;;;;;;;8.45;62.32;102811.03;5267292;28;20040;-76
2022/03/25 02:03:44;;;;;;;64.90;44.33;;;;;;;8.46;62.34;102825.84;5282231;22;20044;-75
2022/03/25 02:06:15;;;;;;;60.63;42.20;;;;;;;8.56;61.70;102810.88;5255038;28;20020;-75
2022/03/25 02:08:46;;;;;;;58.20;41.10;;;;;;;8.33;62.43;102812.13;5273474;28;20162;-75
2022/03/25 02:11:18;;;;;;;64.90;42.93;;;;;;;8.56;61.80;102812.63;5272034;28;20032;-75
2022/03/25 02:13:50;;;;;;;59.10;41.90;;;;;;;8.22;62.38;102809.72;5284125;28;20024;-75
2022/03/25 02:16:33;;;;;;;63.53;42.40;;;;;;;8.33;62.37;102817.34;5293410;28;20580;-75
2022/03/25 02:19:05;;;;;;;65.60;40.57;;;;;;;8.32;62.00;102820.00;5295441;28;20417;-75
2022/03/25 02:21:38;;;;;;;58.83;41.70;;;;;;;8.16;62.76;102822.03;5276601;28;20020;-75
2022/03/25 02:24:11;;;;;;;61.27;41.57;;;;;;;8.11;63.06;102816.88;5293224;28;20021;-75
2022/03/25 02:26:43;;;;;;;66.20;41.30;;;;;;;8.01;63.08;102815.34;5274070;28;20027;-75
2022/03/25 02:29:17;;;;;;;60.33;38.80;;;;;;;8.07;62.62;102810.00;5291396;28;20020;-75
2022/03/25 02:31:49;;;;;;;56.45;40.17;;;;;;;8.16;61.78;102820.28;5286229;28;20105;-75
2022/03/25 02:34:20;;;;;;;60.00;38.33;;;;;;;8.16;62.30;102814.19;5291520;28;20021;-75
2022/03/25 02:36:51;;;;;;;57.77;38.57;;;;;;;8.05;61.89;102811.75;5266011;28;20024;-75
2022/03/25 02:39:23;;;;;;;58.00;37.37;;;;;;;7.95;61.80;102814.53;5271933;28;20032;-75
2022/03/25 02:41:55;;;;;;;54.53;37.40;;;;;;;8.06;61.74;102818.72;5291329;28;20028;-74
2022/03/25 02:44:27;;;;;;;55.70;37.73;;;;;;;8.17;60.68;102808.94;5276403;28;20039;-75
2022/03/25 02:46:59;;;;;;;54.00;37.63;;;;;;;8.12;60.90;102816.00;5273500;28;20020;-75
2022/03/25 02:49:30;;;;;;;50.70;35.90;;;;;;;8.03;60.56;102813.56;5280150;28;20032;-75
2022/03/25 02:52:01;;;;;;;51.93;35.73;;;;;;;7.96;60.35;102795.38;5258934;28;20025;-75
2022/03/25 02:54:32;;;;;;;51.70;37.30;;;;;;;7.76;61.02;102800.94;5274775;28;20068;-75
2022/03/25 02:57:04;;;;;;;54.93;36.90;;;;;;;7.86;60.56;102812.94;5277895;28;20032;-74
2022/03/25 02:59:35;;;;;;;56.33;37.67;;;;;;;7.70;61.05;102806.25;5291913;28;20098;-75
2022/03/25 03:02:07;;;;;;;51.17;35.23;;;;;;;7.74;60.49;102807.94;5273642;28;20032;-75
2022/03/25 03:04:38;;;;;;;52.57;35.43;;;;;;;7.92;59.98;102812.00;5256635;28;20105;-75
2022/03/25 03:07:10;;;;;;;56.77;35.70;;;;;;;7.87;59.98;102808.59;5284678;28;20025;-75
2022/03/25 03:09:41;;;;;;;53.00;34.83;;;;;;;7.72;60.00;102807.97;5272815;28;20359;-76
2022/03/25 03:12:13;;;;;;;52.93;35.70;;;;;;;7.68;60.71;102808.03;5291496;28;20060;-75
2022/03/25 03:14:44;;;;;;;52.20;35.83;;;;;;;7.52;60.68;102810.00;5288158;28;20382;-75
2022/03/25 03:17:15;;;;;;;55.13;35.67;;;;;;;7.72;60.64;102807.97;5290507;28;20039;-75
2022/03/25 03:19:46;;;;;;;44.57;34.67;;;;;;;7.57;60.61;102813.41;5278557;28;20021;-75
2022/03/25 03:22:18;;;;;;;46.20;34.10;;;;;;;7.71;60.02;102816.69;5256018;28;20035;-75
2022/03/25 03:24:49;;;;;;;50.80;36.30;;;;;;;7.49;60.63;102813.50;5288195;28;20085;-75
2022/03/25 03:27:20;;;;;;;53.07;36.00;;;;;;;7.42;60.57;102804.94;5293512;28;20063;-74
2022/03/25 03:29:52;;;;;;;55.87;36.57;;;;;;;7.38;60.82;102801.50;5290763;28;20542;-75
2022/03/25 03:32:23;;;;;;;55.67;36.23;;;;;;;7.45;60.30;102817.06;5294229;28;20524;-75
2022/03/25 03:34:55;;;;;;;48.57;34.83;;;;;;;7.28;61.17;102814.72;5269947;28;20398;-75
2022/03/25 03:37:27;;;;;;;53.77;37.23;;;;;;;7.20;60.88;102806.97;5284849;28;20024;-75
2022/03/25 03:39:58;;;;;;;53.70;36.80;;;;;;;7.28;61.03;102812.94;5257781;28;20034;-75
2022/03/25 03:42:29;;;;;;;52.10;37.47;;;;;;;7.09;61.12;102796.69;5272594;28;20071;-75
2022/03/25 03:45:01;;;;;;;53.47;36.10;;;;;;;7.29;60.25;102804.25;5277474;28;20032;-75
2022/03/25 03:47:33;;;;;;;51.17;36.10;;;;;;;7.12;60.74;102807.09;5275300;28;20125;-75
2022/03/25 03:50:06;;;;;;;50.03;35.83;;;;;;;7.17;60.44;102802.69;5288432;28;20036;-75
2022/03/25 03:52:38;;;;;;;50.30;35.40;;;;;;;7.09;60.92;102809.72;5289029;28;20032;-75
2022/03/25 03:55:11;;;;;;;53.97;35.40;;;;;;;7.23;60.31;102812.16;5292135;28;20028;-75
2022/03/25 03:57:42;;;;;;;50.27;34.80;;;;;;;7.07;60.85;102801.09;5283768;28;20028;-75
2022/03/25 04:00:14;;;;;;;51.60;34.87;;;;;;;7.08;60.50;102813.22;5273219;28;20031;-75
2022/03/25 04:02:45;;;;;;;50.87;34.80;;;;;;;6.82;60.99;102799.66;5276954;28;20027;-75
2022/03/25 04:05:16;;;;;;;52.80;37.00;;;;;;;6.98;60.60;102812.50;5271771;28;20688;-75
2022/03/25 04:07:48;;;;;;;50.37;34.40;;;;;;;6.86;61.14;102814.34;5271869;28;20031;-75
2022/03/25 04:10:20;;;;;;;47.60;34.87;;;;;;;7.24;59.94;102811.28;5275553;28;20050;-75
2022/03/25 04:12:51;;;;;;;52.33;35.67;;;;;;;7.06;60.57;102812.38;5272990;28;20028;-75
2022/03/25 04:15:22;;;;;;;52.77;38.03;;;;;;;7.01;60.52;102812.44;5272581;28;20442;-75
2022/03/25 04:17:53;;;;;;;51.97;37.40;;;;;;;6.89;61.03;102808.25;5284822;28;20482;-75
2022/03/25 04:20:25;;;;;;;54.40;35.53;;;;;;;6.71;60.96;102801.53;5282636;28;20059;-75
2022/03/25 04:22:56;;;;;;;52.13;36.50;;;;;;;6.72;61.23;102801.50;5272147;28;20032;-76
2022/03/25 04:25:28;;;;;;;52.97;35.43;;;;;;;6.78;60.85;102817.06;5278545;28;20020;-74
2022/03/25 04:28:01;;;;;;;49.97;34.80;;;;;;;6.69;60.98;102811.09;5292908;28;20082;-75
2022/03/25 04:30:34;;;;;;;55.53;35.73;;;;;;;6.61;61.00;102808.59;5282244;28;20575;-75
2022/03/25 04:33:06;;;;;;;52.30;36.13;;;;;;;6.62;60.71;102820.72;5279900;28;20033;-75
2022/03/25 04:35:37;;;;;;;61.43;36.63;;;;;;;6.36;62.09;102827.06;5276575;28;20039;-74
2022/03/25 04:38:09;;;;;;;55.77;37.03;;;;;;;6.40;61.71;102824.44;5286770;28;20036;-75
2022/03/25 04:40:41;;;;;;;50.93;36.27;;;;;;;6.54;61.17;102828.63;5273985;28;20052;-75
2022/03/25 04:43:13;;;;;;;57.67;37.63;;;;;;;6.33;62.18;102827.09;5257982;28;20032;-75
2022/03/25 04:45:44;;;;;;;50.00;36.10;;;;;;;6.41;61.47;102828.75;5253862;28;20028;-75
2022/03/25 04:48:15;;;;;;;54.03;38.17;;;;;;;6.35;61.80;102828.81;5271618;28;20407;-75
2022/03/25 04:50:47;;;;;;;57.13;37.10;;;;;;;6.35;61.85;102828.81;5280375;28;20573;-74
2022/03/25 04:53:18;;;;;;;52.07;35.37;;;;;;;6.37;61.63;102828.81;5280673;28;20103;-75
2022/03/25 04:55:49;;;;;;;56.30;36.73;;;;;;;6.19;62.03;102830.69;5260815;28;20028;-75
2022/03/25 04:58:21;;;;;;;54.23;36.73;;;;;;;6.24;62.09;102828.03;5271537;28;20032;-75
2022/03/25 05:00:52;;;;;;;52.73;36.60;;;;;;;6.08;62.48;102819.50;5279601;28;20082;-74
2022/03/25 05:03:24;;;;;;;54.20;37.23;;;;;;;6.11;62.74;102829.91;5291849;28;20831;-74
2022/03/25 05:05:55;;;;;;;55.30;36.97;;;;;;;6.40;61.24;102831.38;5260310;28;20074;-75
2022/03/25 05:08:26;;;;;;;55.00;36.57;;;;;;;6.09;62.10;102839.47;5289490;28;20457;-75
2022/03/25 05:10:58;;;;;;;55.03;37.30;;;;;;;6.08;62.03;102830.78;5281824;28;20024;-76
2022/03/25 05:13:29;;;;;;;54.20;37.07;;;;;;;6.11;62.00;102830.75;5271604;28;20075;-75
2022/03/25 05:16:00;;;;;;;50.60;36.07;;;;;;;6.15;61.90;102826.38;5270692;28;20036;-75
2022/03/25 05:18:31;;;;;;;57.07;38.67;;;;;;;6.05;62.27;102834.28;5271505;28;20543;-75
2022/03/25 05:21:05;;;;;;;54.93;37.77;;;;;;;6.01;62.27;102840.34;5277226;28;20036;-74
2022/03/25 05:23:36;;;;;;;51.63;36.13;;;;;;;5.99;62.13;102836.91;5291641;28;20038;-75
2022/03/25 05:26:07;;;;;;;51.93;37.13;;;;;;;6.19;61.55;102846.31;5281956;28;20028;-75
2022/03/25 05:28:39;;;;;;;62.77;38.73;;;;;;;5.96;62.02;102844.72;5277304;28;20040;-74
2022/03/25 05:31:10;;;;;;;59.33;37.27;;;;;;;5.97;62.25;102848.19;5271166;28;20024;-75
2022/03/25 05:33:41;;;;;;;51.80;39.07;;;;;;;5.91;62.64;102841.31;5269585;28;20025;-75
2022/03/25 05:36:12;;;;;;;58.33;38.87;;;;;;;5.94;62.22;102838.66;5271338;28;20477;-75
2022/03/25 05:38:44;;;;;;;54.97;37.80;;;;;;;5.75;63.12;102832.75;5268818;28;20541;-75
2022/03/25 05:41:15;;;;;;;59.03;39.90;;;;;;;5.85;63.01;102843.97;5276284;28;20475;-75
2022/03/25 05:43:47;;;;;;;54.17;37.50;;;;;;;5.92;62.92;102843.00;5258826;28;20148;-75
2022/03/25 05:46:18;;;;;;;57.07;38.70;;;;;;;5.66;63.42;102847.53;5272013;28;20033;-74
2022/03/25 05:48:49;;;;;;;54.97;38.90;;;;;;;5.72;63.41;102853.56;5268086;28;20032;-75
2022/03/25 05:51:21;;;;;;;57.03;38.93;;;;;;;5.78;63.10;102851.78;5282771;28;20047;-75
2022/03/25 05:53:52;;;;;;;58.73;39.63;;;;;;;5.83;63.22;102845.69;5269837;28;20740;-75
2022/03/25 05:56:23;;;;;;;58.73;36.90;;;;;;;5.76;63.27;102850.94;5270883;28;20029;-75
2022/03/25 05:58:54;;;;;;;56.57;36.53;;;;;;;5.70;63.62;102840.59;5270645;28;20033;-75
2022/03/25 06:01:26;;;;;;;57.47;39.17;;;;;;;5.68;63.29;102855.31;5276098;28;20073;-75
2022/03/25 06:03:57;;;;;;;57.60;38.60;;;;;;;5.69;63.97;102859.63;5289695;28;20052;-76
2022/03/25 06:06:28;;;;;;;56.13;40.30;;;;;;;5.84;63.89;102858.69;5269445;28;20103;-71
2022/03/25 06:08:59;;;;;;;63.03;39.43;;;;;;;5.73;63.87;102861.34;5276966;28;20086;-75
2022/03/25 06:11:31;;;;;;;63.70;41.57;;;;;;;5.84;64.36;102855.22;5278140;28;20027;-73
2022/03/25 06:14:02;;;;;;;56.30;39.03;;;;;;;5.91;64.01;102851.69;5280230;28;20016;-75
2022/03/25 06:16:33;;;;;;;60.77;40.97;;;;;;;6.03;63.72;102869.81;5255995;28;20083;-76
2022/03/25 06:19:05;;;;;;;60.17;40.67;;;;;;;6.04;63.58;102866.34;5283580;28;20117;-74
2022/03/25 06:21:36;;;;;;;63.60;40.90;;;;;;;6.16;63.46;102875.81;5285719;28;20340;-74
2022/03/25 06:24:08;;;;;;;57.37;40.70;;;;;;;6.19;63.30;102874.94;5272277;28;20107;-74
2022/03/25 06:26:39;;;;;;;65.50;42.67;;;;;;;6.05;64.47;102877.66;5270054;28;20035;-74
2022/03/25 06:29:10;;;;;;;56.67;41.50;;;;;;;6.00;64.14;102868.97;5252117;28;20036;-74
2022/03/25 06:31:42;;;;;;;62.53;43.20;;;;;;;6.14;63.94;102866.31;5273345;28;20028;-75
2022/03/25 06:34:20;;;;;;;62.20;44.00;;;;;;;6.07;64.39;102875.03;5292038;28;20024;-75
2022/03/25 06:36:51;;;;;;;59.53;43.07;;;;;;;6.20;64.22;102884.44;5275054;28;20112;-75
2022/03/25 06:39:22;;;;;;;65.07;44.33;;;;;;;6.36;63.50;102892.13;5274352;28;20103;-81
2022/03/25 06:41:54;;;;;;;67.77;43.93;;;;;;;6.32;64.07;102890.44;5280583;28;20028;-82
2022/03/25 06:44:25;;;;;;;73.27;46.07;;;;;;;6.34;63.96;102888.66;5266484;28;20032;-80
2022/03/25 06:46:56;;;;;;;74.57;45.10;;;;;;;6.21;65.08;102895.72;5262084;28;20059;-82
2022/03/25 06:49:28;;;;;;;62.40;44.90;;;;;;;6.45;63.88;102896.38;5252193;28;20022;-81
2022/03/25 06:51:59;;;;;;;66.47;45.20;;;;;;;6.38;64.70;102891.25;5260987;28;20036;-79
2022/03/25 06:54:31;;;;;;;68.60;44.77;;;;;;;6.44;64.51;102885.09;5246110;28;20036;-77
2022/03/25 06:57:02;;;;;;;67.30;43.50;;;;;;;6.43;64.38;102878.19;5261867;28;20021;-77
2022/03/25 06:59:34;;;;;;;67.80;46.93;;;;;;;6.51;64.38;102886.78;5244585;28;20025;-82
2022/03/25 07:02:07;;;;;;;67.77;45.53;;;;;;;6.59;64.28;102891.94;5227144;28;20109;-82
2022/03/25 07:04:39;;;;;;;71.30;46.37;;;;;;;6.74;64.06;102897.84;5270968;28;20049;-82
2022/03/25 07:07:11;;;;;;;67.03;47.47;;;;;;;6.78;64.13;102894.34;5271195;28;20036;-82
2022/03/25 07:09:42;;;;;;;66.27;46.57;;;;;;;6.83;64.35;102892.53;5260684;28;20422;-82
2022/03/25 07:12:16;;;;;;;68.30;47.83;;;;;;;6.77;64.83;102888.25;5261691;28;20044;-82
2022/03/25 07:14:48;;;;;;;72.00;49.70;;;;;;;6.89;64.89;102896.81;5237104;28;21069;-82
2022/03/25 07:17:19;;;;;;;70.23;48.57;;;;;;;6.97;65.24;102904.53;5262681;28;20056;-82
2022/03/25 07:19:50;;;;;;;68.40;48.57;;;;;;;7.02;64.56;102906.22;5272556;28;20024;-82
2022/03/25 07:22:21;;;;;;;72.50;49.87;;;;;;;7.03;64.49;102904.50;5272297;28;20016;-83
2022/03/25 07:24:53;;;;;;;79.60;53.63;;;;;;;7.17;64.08;102909.53;5272230;28;20020;-82
2022/03/25 07:27:24;;;;;;;73.70;54.27;;;;;;;7.05;64.98;102912.28;5272646;28;20035;-81
2022/03/25 07:29:55;;;;;;;79.17;53.40;;;;;;;7.28;64.63;102918.97;5273329;28;20351;-81
2022/03/25 07:32:26;;;;;;;74.47;52.13;;;;;;;7.33;64.54;102910.19;5268721;28;20090;-82
2022/03/25 07:34:58;;;;;;;71.17;52.20;;;;;;;7.53;63.73;102910.81;5261167;28;20036;-83
2022/03/25 07:37:29;;;;;;;72.77;51.63;;;;;;;7.72;63.29;102925.34;5269258;28;20032;-84
2022/03/25 07:40:00;;;;;;;75.43;54.40;;;;;;;7.76;63.26;102910.50;5275068;28;20056;-84
2022/03/25 07:42:32;;;;;;;73.40;50.63;;;;;;;7.80;62.55;102927.81;5271087;28;20048;-83
2022/03/25 07:45:05;;;;;;;72.10;51.43;;;;;;;8.04;62.26;102923.13;5267934;28;20101;-83
2022/03/25 07:47:47;;;;;;;74.70;52.67;;;;;;;8.30;61.90;102934.91;5269454;28;20136;-81
2022/03/25 07:50:23;;;;;;;72.27;52.60;;;;;;;8.55;61.35;102942.34;5269500;28;20028;-79
2022/03/25 07:52:54;;;;;;;75.53;53.37;;;;;;;8.76;61.61;102948.06;5266917;28;20052;-79
2022/03/25 07:55:25;;;;;;;78.33;54.93;;;;;;;8.85;61.08;102947.03;5269726;28;20055;-83
2022/03/25 07:57:57;;;;;;;77.07;50.97;;;;;;;9.14;59.53;102945.63;5269854;28;20025;-83
2022/03/25 08:00:28;;;;;;;73.53;52.13;;;;;;;9.43;58.51;102953.75;5269413;28;20549;-84
2022/03/25 08:02:59;;;;;;;77.20;55.50;;;;;;;9.88;57.38;102951.94;5267318;28;20031;-81
2022/03/25 08:05:30;;;;;;;72.33;53.23;;;;;;;10.58;55.54;102966.00;5248283;28;20049;-81
2022/03/25 08:08:03;;;;;;;67.80;51.87;;;;;;;11.32;53.29;102959.66;5247151;28;20599;-82
2022/03/25 08:10:35;;;;;;;73.57;52.00;;;;;;;11.82;51.43;102966.03;5248767;28;20033;-83
2022/03/25 08:13:07;;;;;;;68.80;50.97;;;;;;;12.73;49.63;102971.00;5244239;28;20116;-83
2022/03/25 08:15:38;;;;;;;71.37;50.83;;;;;;;13.14;47.92;102972.22;5249356;28;20119;-84
2022/03/25 08:18:10;;;;;;;64.10;49.07;;;;;;;13.98;45.52;102966.41;5249069;28;20028;-83
2022/03/25 08:20:44;;;;;;;69.00;50.77;;;;;;;14.67;43.49;102970.63;5249575;28;20029;-83
2022/03/25 08:29:03;;;;;;;57.70;47.70;;;;;;;16.24;38.92;102980.22;5250067;28;20112;-83
2022/03/25 08:31:34;;;;;;;59.60;45.37;;;;;;;17.00;37.12;102986.09;5246486;28;20025;-83
2022/03/25 08:34:08;;;;;;;56.40;45.33;;;;;;;17.08;36.59;102983.88;5246957;28;20451;-84
2022/03/25 08:36:40;;;;;;;56.83;46.67;;;;;;;17.80;35.78;102995.06;5249306;28;20554;-83
2022/03/25 08:39:12;;;;;;;53.00;43.70;;;;;;;17.90;34.62;102997.09;5246857;28;20021;-83
2022/03/25 08:41:43;;;;;;;58.93;43.40;;;;;;;18.16;34.14;102987.75;5248691;28;20029;-83
2022/03/25 08:44:15;;;;;;;56.87;45.37;;;;;;;18.53;33.00;102985.56;5246592;28;20104;-83
2022/03/25 08:46:46;;;;;;;62.83;45.27;;;;;;;19.08;32.68;102993.75;5247707;28;20025;-83
2022/03/25 08:49:17;;;;;;;53.17;43.10;;;;;;;19.42;31.56;102996.13;5248942;28;20052;-83
2022/03/25 08:51:48;;;;;;;58.57;44.50;;;;;;;20.58;30.78;102993.09;5250772;28;20079;-83
2022/03/25 08:54:20;;;;;;;53.13;44.33;;;;;;;20.24;30.40;102991.75;5247844;28;20060;-82
2022/03/25 08:56:53;;;;;;;56.38;44.20;;;;;;;20.46;30.21;102992.94;5246532;28;20041;-83
2022/03/25 08:59:24;;;;;;;50.00;42.85;;;;;;;20.98;29.20;102998.28;5248627;28;20009;-83
2022/03/25 09:01:56;;;;;;;48.30;40.80;;;;;;;21.28;28.35;103002.41;5248744;28;20032;-82
2022/03/25 09:04:30;;;;;;;52.22;43.30;;;;;;;21.28;28.22;102999.75;5243728;28;20052;-79
2022/03/25 09:07:01;;;;;;;47.05;40.70;;;;;;;21.84;27.54;103012.69;5247393;28;20049;-85
2022/03/25 09:09:32;;;;;;;47.58;42.40;;;;;;;21.94;27.23;103008.34;5247333;28;20032;-83
2022/03/25 09:12:04;;;;;;;49.28;40.38;;;;;;;22.35;26.58;103016.03;5248732;28;20147;-83
2022/03/25 09:14:35;;;;;;;55.00;41.78;;;;;;;22.76;26.03;103007.63;5246135;28;20033;-82
2022/03/25 09:17:07;;;;;;;48.40;41.60;;;;;;;22.95;26.25;103013.22;5247892;28;20021;-83
2022/03/25 09:19:39;;;;;;;51.55;42.33;;;;;;;22.53;26.45;103005.75;5248648;28;20017;-83
2022/03/25 09:22:10;;;;;;;46.83;41.17;;;;;;;23.36;24.95;103014.50;5246804;28;20036;-82
2022/03/25 09:24:41;;;;;;;49.92;41.28;;;;;;;23.28;24.60;103015.13;5246247;28;20025;-83
2022/03/25 09:27:13;;;;;;;51.55;42.40;;;;;;;23.70;24.02;103014.47;5246239;28;20104;-83
2022/03/25 09:29:45;;;;;;;52.28;40.28;;;;;;;23.67;24.38;103014.69;5246903;28;20511;-83
2022/03/25 09:32:16;;;;;;;45.60;40.53;;;;;;;23.60;23.86;103017.03;5247991;28;20471;-83
2022/03/25 09:37:42;;;;;;;52.25;40.45;;;;;;;25.42;23.05;103024.06;5247391;28;20491;-83
2022/03/25 09:40:23;;;;;;;43.13;37.60;;;;;;;25.18;22.58;103011.00;5248779;28;20622;-83
2022/03/25 09:42:55;;;;;;;51.15;39.05;;;;;;;24.63;23.23;103016.56;5251181;28;20155;-83
2022/03/25 09:45:30;;;;;;;44.28;38.65;;;;;;;25.21;22.59;103024.13;5251396;28;20064;-84
2022/03/25 09:48:02;;;;;;;42.15;36.08;;;;;;;25.78;21.02;103022.72;5252094;28;20177;-83
2022/03/25 09:50:36;;;;;;;45.22;36.75;;;;;;;25.54;21.74;103014.03;5250196;28;20119;-83
2022/03/25 09:53:08;;;;;;;45.17;34.53;;;;;;;25.60;20.98;103013.50;5248925;28;20064;-83
2022/03/25 09:55:42;;;;;;;48.35;34.88;;;;;;;25.78;20.59;103011.97;5251917;28;20025;-83
2022/03/25 09:58:22;;;;;;;40.50;35.05;;;;;;;26.16;20.24;103006.72;5253096;28;20050;-83
2022/03/25 10:00:54;;;;;;;39.92;32.90;;;;;;;26.39;20.63;103009.13;5253234;28;20130;-83
2022/03/25 10:03:31;;;;;;;43.67;35.42;;;;;;;25.69;20.33;103006.44;5249539;28;20056;-83
2022/03/25 10:06:09;;;;;;;51.38;35.10;;;;;;;26.07;20.92;103000.38;5271756;28;20020;-83
2022/03/25 10:08:42;;;;;;;42.70;35.35;;;;;;;25.64;20.92;103010.53;5265540;28;20021;-83
2022/03/25 10:11:46;;;;;;;42.63;32.80;;;;;;;27.93;20.81;103004.13;5272516;28;20052;-83
2022/03/25 10:14:21;;;;;;;36.75;32.88;;;;;;;27.49;18.77;103010.31;5218997;28;20037;-83
2022/03/25 10:16:53;;;;;;;38.65;30.88;;;;;;;26.69;19.17;102991.03;5271105;28;20040;-83
2022/03/25 10:19:25;;;;;;;37.30;32.10;;;;;;;26.96;18.95;103000.13;5266860;28;20032;-83
2022/03/25 10:22:01;;;;;;;39.53;31.75;;;;;;;26.98;19.06;103002.66;5272366;28;20016;-82
2022/03/25 10:24:52;;;;;;;40.95;30.30;;;;;;;27.54;18.61;102998.06;5271176;28;20033;-83
2022/03/25 10:27:28;;;;;;;34.95;28.40;;;;;;;26.34;19.10;102986.22;5272706;28;20056;-84
2022/03/25 10:30:01;;;;;;;34.75;28.35;;;;;;;25.70;18.92;102993.88;5272796;28;20048;-85
2022/03/25 10:32:39;;;;;;;40.13;30.52;;;;;;;26.54;19.69;102991.53;5262383;28;20029;-86
2022/03/25 10:35:11;;;;;;;45.50;29.92;;;;;;;25.72;19.84;102986.56;5270033;28;20035;-85
2022/03/25 10:37:57;;;;;;;37.90;30.42;;;;;;;26.58;19.78;102989.41;5263352;28;20027;-85
2022/03/25 10:40:28;;;;;;;38.88;29.08;;;;;;;25.71;19.67;102988.38;5273497;28;20033;-85
2022/03/25 10:43:08;;;;;;;37.42;28.38;;;;;;;25.60;19.89;102993.88;5271316;28;20102;-85
2022/03/25 10:45:40;;;;;;;39.95;28.90;;;;;;;25.25;19.89;102988.03;5256123;28;20081;-86
2022/03/25 10:48:21;;;;;;;34.47;29.25;;;;;;;25.68;19.88;102985.13;5274711;28;20089;-85
2022/03/25 10:51:05;;;;;;;37.50;27.23;;;;;;;25.81;20.23;102987.53;5256057;28;20032;-85
2022/03/25 10:53:37;;;;;;;;;;;;;;;26.96;19.28;102989.38;5270495;28;20023;-85
2022/03/25 10:56:12;;;;;;;37.78;25.77;;;;;;;24.71;20.36;102975.72;5273525;28;19944;-85
2022/03/25 10:58:56;;;;;;;32.65;22.33;;;;;;;24.38;19.57;102986.53;5274041;28;20032;-85
2022/03/25 11:01:27;;;;;;;31.85;25.50;;;;;;;22.71;21.12;102979.47;5273050;28;20021;-78
2022/03/25 11:03:59;;;;;;;29.60;25.42;;;;;;;22.66;21.18;102965.63;5270513;28;20052;-85
2022/03/25 11:06:32;;;;;;;37.63;25.75;;;;;;;22.69;21.88;102973.38;5272969;28;20029;-85
2022/03/25 11:09:05;;;;;;;30.63;24.98;;;;;;;22.71;21.31;102965.25;5272534;28;20016;-84
2022/03/25 11:11:37;;;;;;;36.33;29.25;;;;;;;22.14;22.92;102975.81;5272895;28;20041;-85
2022/03/25 11:14:09;;;;;;;39.78;26.48;;;;;;;22.02;22.78;102974.94;5270336;28;20009;-85
2022/03/25 11:16:46;;;;;;;37.75;29.20;;;;;;;22.40;23.11;102959.59;5273221;28;20055;-85
2022/03/25 11:19:18;;;;;;;32.30;26.30;;;;;;;21.45;23.18;102965.66;5273361;28;20646;-84
2022/03/25 11:21:50;;;;;;;40.55;28.75;;;;;;;21.44;23.90;102969.31;5272476;28;20033;-84
2022/03/25 11:24:30;;;;;;;32.80;25.65;;;;;;;21.64;24.02;102970.50;5259064;28;20386;-85
2022/03/25 11:27:25;;;;;;;36.67;26.20;;;;;;;21.89;23.95;102967.84;5273316;28;20024;-86
2022/03/25 11:30:09;;;;;;;35.47;28.02;;;;;;;21.37;23.75;102968.06;5273199;28;20024;-84
2022/03/25 11:33:07;;;;;;;;;;;;;;;22.35;23.03;102962.66;5272532;28;20621;-84
2022/03/25 11:35:41;;;;;;;36.90;27.33;;;;;;;21.48;24.28;102952.13;5261063;28;20282;-84
2022/03/25 11:38:12;;;;;;;39.38;28.70;;;;;;;21.36;23.92;102961.03;5259212;28;20082;-84
2022/03/25 11:40:51;;;;;;;42.97;30.07;;;;;;;21.32;24.33;102956.88;5261994;28;20052;-84
2022/03/25 11:43:28;;;;;;;35.23;28.40;;;;;;;21.63;24.05;102952.81;5260857;28;20063;-84
2022/03/25 11:45:59;;;;;;;46.70;30.73;;;;;;;21.39;24.61;102958.13;5262132;28;20020;-84
2022/03/25 11:48:30;;;;;;;40.80;30.83;;;;;;;21.61;24.46;102949.41;5260262;28;20036;-84